sensor_id;sensor_type;location;lat;lon;timestamp;P1;durP1;ratioP1;P2;durP2;ratioP2
28605;SDS011;46498;49.968;7.754;2022-12-18T00:02:13;42.90;;;14.60;;
28605;SDS011;46498;49.968;7.754;2022-12-18T00:07:14;40.08;;;12.98;;
28605;SDS011;46498;49.968;7.754;2022-12-18T00:12:14;35.08;;;12.37;;
28605;SDS011;46498;49.968;7.754;2022-12-18T00:17:15;38.33;;;11.60;;
28605;SDS011;46498;49.968;7.754;2022-12-18T00:22:16;29.48;;;11.00;;
28605;SDS011;46498;49.968;7.754;2022-12-18T00:27:17;32.85;;;10.27;;
28605;SDS011;46498;49.968;7.754;2022-12-18T00:32:18;33.92;;;10.93;;
28605;SDS011;46498;49.968;7.754;2022-12-18T00:37:19;26.92;;;9.75;;
28605;SDS011;46498;49.968;7.754;2022-12-18T00:42:24;31.42;;;9.48;;
28605;SDS011;46498;49.968;7.754;2022-12-18T00:47:43;40.22;;;11.55;;
28605;SDS011;46498;49.968;7.754;2022-12-18T00:52:44;43.95;;;13.98;;
28605;SDS011;46498;49.968;7.754;2022-12-18T00:57:45;51.37;;;15.65;;
28605;SDS011;46498;49.968;7.754;2022-12-18T01:02:46;57.10;;;17.67;;
28605;SDS011;46498;49.968;7.754;2022-12-18T01:07:47;76.95;;;16.25;;
28605;SDS011;46498;49.968;7.754;2022-12-18T01:12:48;95.25;;;20.35;;
28605;SDS011;46498;49.968;7.754;2022-12-18T01:17:52;58.13;;;17.30;;
28605;SDS011;46498;49.968;7.754;2022-12-18T01:22:54;55.88;;;16.33;;
28605;SDS011;46498;49.968;7.754;2022-12-18T01:27:54;59.75;;;16.40;;
28605;SDS011;46498;49.968;7.754;2022-12-18T01:32:55;55.92;;;15.20;;
28605;SDS011;46498;49.968;7.754;2022-12-18T01:37:56;60.88;;;17.48;;
28605;SDS011;46498;49.968;7.754;2022-12-18T01:42:57;89.35;;;24.52;;
28605;SDS011;46498;49.968;7.754;2022-12-18T01:47:59;65.40;;;19.05;;
28605;SDS011;46498;49.968;7.754;2022-12-18T01:53:07;70.18;;;22.73;;
28605;SDS011;46498;49.968;7.754;2022-12-18T01:58:11;84.47;;;22.37;;
28605;SDS011;46498;49.968;7.754;2022-12-18T02:03:13;76.15;;;20.98;;
28605;SDS011;46498;49.968;7.754;2022-12-18T02:08:26;73.55;;;21.17;;
28605;SDS011;46498;49.968;7.754;2022-12-18T02:13:41;86.57;;;20.88;;
28605;SDS011;46498;49.968;7.754;2022-12-18T02:18:53;84.18;;;22.35;;
28605;SDS011;46498;49.968;7.754;2022-12-18T02:31:53;81.75;;;21.52;;
28605;SDS011;46498;49.968;7.754;2022-12-18T02:36:57;81.12;;;21.60;;
28605;SDS011;46498;49.968;7.754;2022-12-18T02:42:01;67.50;;;19.60;;
28605;SDS011;46498;49.968;7.754;2022-12-18T02:47:08;73.03;;;18.75;;
28605;SDS011;46498;49.968;7.754;2022-12-18T03:00:53;59.47;;;17.65;;
28605;SDS011;46498;49.968;7.754;2022-12-18T03:06:10;59.17;;;17.75;;
28605;SDS011;46498;49.968;7.754;2022-12-18T03:11:20;55.78;;;17.50;;
28605;SDS011;46498;49.968;7.754;2022-12-18T03:17:25;65.75;;;19.12;;
28605;SDS011;46498;49.968;7.754;2022-12-18T03:22:29;59.22;;;20.27;;
28605;SDS011;46498;49.968;7.754;2022-12-18T03:27:33;59.38;;;20.65;;
28605;SDS011;46498;49.968;7.754;2022-12-18T03:39:23;56.05;;;17.17;;
28605;SDS011;46498;49.968;7.754;2022-12-18T03:44:30;50.47;;;18.05;;
28605;SDS011;46498;49.968;7.754;2022-12-18T03:55:20;54.63;;;18.10;;
28605;SDS011;46498;49.968;7.754;2022-12-18T04:00:28;54.78;;;18.12;;
28605;SDS011;46498;49.968;7.754;2022-12-18T04:05:37;55.53;;;17.73;;
28605;SDS011;46498;49.968;7.754;2022-12-18T04:10:40;57.97;;;18.98;;
28605;SDS011;46498;49.968;7.754;2022-12-18T04:15:41;61.00;;;18.87;;
28605;SDS011;46498;49.968;7.754;2022-12-18T04:20:44;65.75;;;21.20;;
28605;SDS011;46498;49.968;7.754;2022-12-18T04:25:46;61.10;;;20.05;;
28605;SDS011;46498;49.968;7.754;2022-12-18T04:30:51;66.93;;;19.50;;
28605;SDS011;46498;49.968;7.754;2022-12-18T04:35:54;70.10;;;22.08;;
28605;SDS011;46498;49.968;7.754;2022-12-18T04:40:54;63.92;;;20.55;;
28605;SDS011;46498;49.968;7.754;2022-12-18T04:46:02;74.62;;;22.40;;
28605;SDS011;46498;49.968;7.754;2022-12-18T04:51:05;74.47;;;23.50;;
28605;SDS011;46498;49.968;7.754;2022-12-18T04:56:09;75.18;;;22.92;;
28605;SDS011;46498;49.968;7.754;2022-12-18T05:01:11;88.87;;;27.52;;
28605;SDS011;46498;49.968;7.754;2022-12-18T05:11:15;68.57;;;23.15;;
28605;SDS011;46498;49.968;7.754;2022-12-18T05:16:16;76.15;;;22.85;;
28605;SDS011;46498;49.968;7.754;2022-12-18T05:21:17;72.62;;;22.42;;
28605;SDS011;46498;49.968;7.754;2022-12-18T05:26:18;78.05;;;25.33;;
28605;SDS011;46498;49.968;7.754;2022-12-18T05:31:19;74.05;;;22.75;;
28605;SDS011;46498;49.968;7.754;2022-12-18T05:36:21;91.40;;;27.48;;
28605;SDS011;46498;49.968;7.754;2022-12-18T05:41:21;90.80;;;28.27;;
28605;SDS011;46498;49.968;7.754;2022-12-18T05:46:22;84.97;;;26.83;;
28605;SDS011;46498;49.968;7.754;2022-12-18T05:51:25;79.00;;;25.50;;
28605;SDS011;46498;49.968;7.754;2022-12-18T05:56:26;82.88;;;25.50;;
28605;SDS011;46498;49.968;7.754;2022-12-18T06:01:26;89.87;;;25.55;;
28605;SDS011;46498;49.968;7.754;2022-12-18T06:06:28;79.75;;;25.73;;
28605;SDS011;46498;49.968;7.754;2022-12-18T06:11:29;83.85;;;26.80;;
28605;SDS011;46498;49.968;7.754;2022-12-18T06:16:30;87.35;;;27.17;;
28605;SDS011;46498;49.968;7.754;2022-12-18T06:21:32;77.70;;;24.77;;
28605;SDS011;46498;49.968;7.754;2022-12-18T06:31:37;86.82;;;27.10;;
28605;SDS011;46498;49.968;7.754;2022-12-18T06:36:38;73.18;;;25.70;;
28605;SDS011;46498;49.968;7.754;2022-12-18T06:41:39;95.07;;;30.45;;
28605;SDS011;46498;49.968;7.754;2022-12-18T06:46:40;76.50;;;25.15;;
28605;SDS011;46498;49.968;7.754;2022-12-18T06:51:42;75.10;;;25.53;;
28605;SDS011;46498;49.968;7.754;2022-12-18T06:56:44;83.90;;;27.10;;
28605;SDS011;46498;49.968;7.754;2022-12-18T07:01:46;71.07;;;25.17;;
28605;SDS011;46498;49.968;7.754;2022-12-18T07:06:47;72.47;;;26.08;;
28605;SDS011;46498;49.968;7.754;2022-12-18T07:11:48;86.18;;;26.23;;
28605;SDS011;46498;49.968;7.754;2022-12-18T07:16:49;77.45;;;25.48;;
28605;SDS011;46498;49.968;7.754;2022-12-18T07:21:50;88.37;;;29.12;;
28605;SDS011;46498;49.968;7.754;2022-12-18T07:26:51;104.68;;;32.33;;
28605;SDS011;46498;49.968;7.754;2022-12-18T07:31:53;78.05;;;25.50;;
28605;SDS011;46498;49.968;7.754;2022-12-18T07:36:54;77.68;;;25.37;;
28605;SDS011;46498;49.968;7.754;2022-12-18T07:41:54;90.03;;;26.42;;
28605;SDS011;46498;49.968;7.754;2022-12-18T07:47:15;83.53;;;25.40;;
28605;SDS011;46498;49.968;7.754;2022-12-18T07:52:16;89.45;;;28.23;;
28605;SDS011;46498;49.968;7.754;2022-12-18T07:57:23;78.00;;;26.12;;
28605;SDS011;46498;49.968;7.754;2022-12-18T08:02:50;86.20;;;29.30;;
28605;SDS011;46498;49.968;7.754;2022-12-18T08:07:51;85.22;;;27.95;;
28605;SDS011;46498;49.968;7.754;2022-12-18T08:12:52;100.82;;;30.33;;
28605;SDS011;46498;49.968;7.754;2022-12-18T08:17:56;84.35;;;28.20;;
28605;SDS011;46498;49.968;7.754;2022-12-18T08:22:57;89.53;;;26.60;;
28605;SDS011;46498;49.968;7.754;2022-12-18T08:27:58;78.00;;;25.37;;
28605;SDS011;46498;49.968;7.754;2022-12-18T08:32:59;76.90;;;24.65;;
28605;SDS011;46498;49.968;7.754;2022-12-18T08:38:00;87.40;;;26.73;;
28605;SDS011;46498;49.968;7.754;2022-12-18T08:43:01;91.63;;;27.40;;
28605;SDS011;46498;49.968;7.754;2022-12-18T08:48:20;90.20;;;29.40;;
28605;SDS011;46498;49.968;7.754;2022-12-18T08:53:22;84.15;;;29.42;;
28605;SDS011;46498;49.968;7.754;2022-12-18T08:58:24;82.12;;;28.42;;
28605;SDS011;46498;49.968;7.754;2022-12-18T09:03:25;77.97;;;27.87;;
28605;SDS011;46498;49.968;7.754;2022-12-18T09:08:26;79.60;;;27.98;;
28605;SDS011;46498;49.968;7.754;2022-12-18T09:13:27;79.18;;;28.45;;
28605;SDS011;46498;49.968;7.754;2022-12-18T09:18:29;72.28;;;26.42;;
28605;SDS011;46498;49.968;7.754;2022-12-18T09:23:30;76.57;;;27.60;;
28605;SDS011;46498;49.968;7.754;2022-12-18T09:28:30;83.43;;;27.55;;
28605;SDS011;46498;49.968;7.754;2022-12-18T09:33:31;77.00;;;27.50;;
28605;SDS011;46498;49.968;7.754;2022-12-18T09:38:33;74.03;;;25.15;;
28605;SDS011;46498;49.968;7.754;2022-12-18T09:50:31;72.80;;;26.30;;
28605;SDS011;46498;49.968;7.754;2022-12-18T09:55:38;76.32;;;26.90;;
28605;SDS011;46498;49.968;7.754;2022-12-18T10:00:44;72.18;;;27.10;;
28605;SDS011;46498;49.968;7.754;2022-12-18T10:15:01;70.00;;;25.10;;
28605;SDS011;46498;49.968;7.754;2022-12-18T10:20:24;100.43;;;33.67;;
28605;SDS011;46498;49.968;7.754;2022-12-18T10:26:02;97.55;;;32.25;;
28605;SDS011;46498;49.968;7.754;2022-12-18T10:31:05;107.07;;;39.13;;
28605;SDS011;46498;49.968;7.754;2022-12-18T10:36:08;72.93;;;25.45;;
28605;SDS011;46498;49.968;7.754;2022-12-18T10:41:23;72.25;;;27.30;;
28605;SDS011;46498;49.968;7.754;2022-12-18T10:46:27;73.30;;;26.02;;
28605;SDS011;46498;49.968;7.754;2022-12-18T10:51:33;77.40;;;27.17;;
28605;SDS011;46498;49.968;7.754;2022-12-18T10:56:37;80.40;;;28.42;;
28605;SDS011;46498;49.968;7.754;2022-12-18T11:01:59;97.70;;;30.75;;
28605;SDS011;46498;49.968;7.754;2022-12-18T11:07:02;80.62;;;26.87;;
28605;SDS011;46498;49.968;7.754;2022-12-18T11:12:05;84.43;;;27.02;;
28605;SDS011;46498;49.968;7.754;2022-12-18T11:17:20;90.53;;;29.05;;
28605;SDS011;46498;49.968;7.754;2022-12-18T11:22:35;94.53;;;28.50;;
28605;SDS011;46498;49.968;7.754;2022-12-18T11:27:39;117.30;;;35.70;;
28605;SDS011;46498;49.968;7.754;2022-12-18T11:32:41;88.23;;;28.17;;
28605;SDS011;46498;49.968;7.754;2022-12-18T11:37:49;91.18;;;25.25;;
28605;SDS011;46498;49.968;7.754;2022-12-18T11:42:57;88.72;;;25.92;;
28605;SDS011;46498;49.968;7.754;2022-12-18T11:48:14;96.07;;;26.80;;
28605;SDS011;46498;49.968;7.754;2022-12-18T11:53:22;111.97;;;28.67;;
28605;SDS011;46498;49.968;7.754;2022-12-18T11:58:38;99.20;;;28.10;;
28605;SDS011;46498;49.968;7.754;2022-12-18T12:04:08;106.12;;;28.92;;
28605;SDS011;46498;49.968;7.754;2022-12-18T12:10:55;111.68;;;27.90;;
28605;SDS011;46498;49.968;7.754;2022-12-18T12:16:31;107.45;;;30.05;;
28605;SDS011;46498;49.968;7.754;2022-12-18T12:21:43;103.70;;;29.55;;
28605;SDS011;46498;49.968;7.754;2022-12-18T12:26:55;105.43;;;31.08;;
28605;SDS011;46498;49.968;7.754;2022-12-18T12:41:27;115.68;;;32.42;;
28605;SDS011;46498;49.968;7.754;2022-12-18T12:47:54;106.05;;;31.12;;
28605;SDS011;46498;49.968;7.754;2022-12-18T12:52:58;110.82;;;29.67;;
28605;SDS011;46498;49.968;7.754;2022-12-18T12:58:16;118.85;;;32.53;;
28605;SDS011;46498;49.968;7.754;2022-12-18T13:03:55;123.75;;;32.70;;
28605;SDS011;46498;49.968;7.754;2022-12-18T13:09:03;112.78;;;31.50;;
28605;SDS011;46498;49.968;7.754;2022-12-18T13:14:04;130.07;;;34.83;;
28605;SDS011;46498;49.968;7.754;2022-12-18T13:19:18;117.13;;;32.83;;
28605;SDS011;46498;49.968;7.754;2022-12-18T13:24:27;105.05;;;30.73;;
28605;SDS011;46498;49.968;7.754;2022-12-18T13:29:40;125.50;;;33.05;;
28605;SDS011;46498;49.968;7.754;2022-12-18T13:34:45;127.03;;;35.90;;
28605;SDS011;46498;49.968;7.754;2022-12-18T13:39:46;136.85;;;36.80;;
28605;SDS011;46498;49.968;7.754;2022-12-18T13:44:47;131.55;;;35.55;;
28605;SDS011;46498;49.968;7.754;2022-12-18T13:49:48;128.93;;;36.47;;
28605;SDS011;46498;49.968;7.754;2022-12-18T13:54:53;129.43;;;37.10;;
28605;SDS011;46498;49.968;7.754;2022-12-18T13:59:56;143.00;;;37.65;;
28605;SDS011;46498;49.968;7.754;2022-12-18T14:04:59;130.50;;;38.80;;
28605;SDS011;46498;49.968;7.754;2022-12-18T14:10:00;140.00;;;37.03;;
28605;SDS011;46498;49.968;7.754;2022-12-18T14:15:38;145.23;;;38.70;;
28605;SDS011;46498;49.968;7.754;2022-12-18T14:20:43;139.15;;;39.30;;
28605;SDS011;46498;49.968;7.754;2022-12-18T14:25:53;129.07;;;37.63;;
28605;SDS011;46498;49.968;7.754;2022-12-18T14:30:54;140.77;;;39.53;;
28605;SDS011;46498;49.968;7.754;2022-12-18T14:36:01;144.20;;;39.83;;
28605;SDS011;46498;49.968;7.754;2022-12-18T14:41:14;135.73;;;37.35;;
28605;SDS011;46498;49.968;7.754;2022-12-18T14:46:35;137.87;;;41.30;;
28605;SDS011;46498;49.968;7.754;2022-12-18T14:51:39;140.02;;;40.75;;
28605;SDS011;46498;49.968;7.754;2022-12-18T14:56:44;136.60;;;38.85;;
28605;SDS011;46498;49.968;7.754;2022-12-18T15:01:58;146.52;;;38.60;;
28605;SDS011;46498;49.968;7.754;2022-12-18T15:07:16;125.70;;;37.47;;
28605;SDS011;46498;49.968;7.754;2022-12-18T15:12:24;136.37;;;39.85;;
28605;SDS011;46498;49.968;7.754;2022-12-18T15:17:33;140.20;;;39.70;;
28605;SDS011;46498;49.968;7.754;2022-12-18T15:22:34;135.43;;;38.15;;
28605;SDS011;46498;49.968;7.754;2022-12-18T15:32:39;123.82;;;36.85;;
28605;SDS011;46498;49.968;7.754;2022-12-18T15:37:43;126.75;;;37.05;;
28605;SDS011;46498;49.968;7.754;2022-12-18T15:42:45;133.80;;;39.50;;
28605;SDS011;46498;49.968;7.754;2022-12-18T15:48:21;132.65;;;37.30;;
28605;SDS011;46498;49.968;7.754;2022-12-18T15:53:23;139.30;;;39.55;;
28605;SDS011;46498;49.968;7.754;2022-12-18T15:58:28;129.85;;;39.90;;
28605;SDS011;46498;49.968;7.754;2022-12-18T16:03:29;139.62;;;41.33;;
28605;SDS011;46498;49.968;7.754;2022-12-18T16:08:30;134.05;;;38.95;;
28605;SDS011;46498;49.968;7.754;2022-12-18T16:13:31;138.00;;;38.95;;
28605;SDS011;46498;49.968;7.754;2022-12-18T16:18:33;134.90;;;41.40;;
28605;SDS011;46498;49.968;7.754;2022-12-18T16:23:33;135.77;;;38.97;;
28605;SDS011;46498;49.968;7.754;2022-12-18T16:28:34;137.25;;;40.58;;
28605;SDS011;46498;49.968;7.754;2022-12-18T16:33:35;136.45;;;39.08;;
28605;SDS011;46498;49.968;7.754;2022-12-18T16:38:36;135.15;;;36.90;;
28605;SDS011;46498;49.968;7.754;2022-12-18T16:43:36;136.85;;;36.05;;
28605;SDS011;46498;49.968;7.754;2022-12-18T16:48:37;135.52;;;38.47;;
28605;SDS011;46498;49.968;7.754;2022-12-18T16:53:38;129.20;;;35.72;;
28605;SDS011;46498;49.968;7.754;2022-12-18T16:58:40;148.18;;;37.45;;
28605;SDS011;46498;49.968;7.754;2022-12-18T17:03:42;124.65;;;34.58;;
28605;SDS011;46498;49.968;7.754;2022-12-18T17:08:45;128.77;;;34.45;;
28605;SDS011;46498;49.968;7.754;2022-12-18T17:13:46;127.10;;;33.85;;
28605;SDS011;46498;49.968;7.754;2022-12-18T17:18:46;132.98;;;35.03;;
28605;SDS011;46498;49.968;7.754;2022-12-18T17:23:48;123.72;;;33.25;;
28605;SDS011;46498;49.968;7.754;2022-12-18T17:28:49;113.07;;;33.22;;
28605;SDS011;46498;49.968;7.754;2022-12-18T17:33:50;125.93;;;34.42;;
28605;SDS011;46498;49.968;7.754;2022-12-18T17:38:53;134.37;;;36.20;;
28605;SDS011;46498;49.968;7.754;2022-12-18T17:44:00;122.65;;;33.92;;
28605;SDS011;46498;49.968;7.754;2022-12-18T17:49:03;136.52;;;34.97;;
28605;SDS011;46498;49.968;7.754;2022-12-18T17:54:04;120.75;;;33.60;;
28605;SDS011;46498;49.968;7.754;2022-12-18T17:59:06;114.88;;;33.80;;
28605;SDS011;46498;49.968;7.754;2022-12-18T18:04:06;116.60;;;32.97;;
28605;SDS011;46498;49.968;7.754;2022-12-18T18:09:08;125.03;;;33.63;;
28605;SDS011;46498;49.968;7.754;2022-12-18T18:14:18;121.82;;;34.30;;
28605;SDS011;46498;49.968;7.754;2022-12-18T18:19:20;111.20;;;32.13;;
28605;SDS011;46498;49.968;7.754;2022-12-18T18:24:23;129.52;;;35.42;;
28605;SDS011;46498;49.968;7.754;2022-12-18T18:29:26;133.93;;;35.22;;
28605;SDS011;46498;49.968;7.754;2022-12-18T18:34:30;125.87;;;33.60;;
28605;SDS011;46498;49.968;7.754;2022-12-18T18:39:33;122.93;;;33.17;;
28605;SDS011;46498;49.968;7.754;2022-12-18T18:44:34;112.85;;;34.03;;
28605;SDS011;46498;49.968;7.754;2022-12-18T18:49:35;116.47;;;33.38;;
28605;SDS011;46498;49.968;7.754;2022-12-18T18:54:36;114.60;;;32.55;;
28605;SDS011;46498;49.968;7.754;2022-12-18T18:59:36;132.37;;;34.58;;
28605;SDS011;46498;49.968;7.754;2022-12-18T19:04:38;131.18;;;33.63;;
28605;SDS011;46498;49.968;7.754;2022-12-18T19:09:47;124.75;;;34.60;;
28605;SDS011;46498;49.968;7.754;2022-12-18T19:14:52;120.70;;;33.90;;
28605;SDS011;46498;49.968;7.754;2022-12-18T19:19:54;122.32;;;33.83;;
28605;SDS011;46498;49.968;7.754;2022-12-18T19:24:55;122.13;;;33.17;;
28605;SDS011;46498;49.968;7.754;2022-12-18T19:29:56;112.95;;;32.53;;
28605;SDS011;46498;49.968;7.754;2022-12-18T19:34:56;118.78;;;33.17;;
28605;SDS011;46498;49.968;7.754;2022-12-18T19:39:59;122.15;;;34.08;;
28605;SDS011;46498;49.968;7.754;2022-12-18T19:45:02;129.68;;;34.40;;
28605;SDS011;46498;49.968;7.754;2022-12-18T19:50:04;122.87;;;34.85;;
28605;SDS011;46498;49.968;7.754;2022-12-18T19:55:06;123.68;;;32.95;;
28605;SDS011;46498;49.968;7.754;2022-12-18T20:00:08;126.60;;;34.97;;
28605;SDS011;46498;49.968;7.754;2022-12-18T20:05:17;129.20;;;36.17;;
28605;SDS011;46498;49.968;7.754;2022-12-18T20:10:24;127.03;;;35.72;;
28605;SDS011;46498;49.968;7.754;2022-12-18T20:15:25;111.53;;;34.50;;
28605;SDS011;46498;49.968;7.754;2022-12-18T20:20:26;122.18;;;32.17;;
28605;SDS011;46498;49.968;7.754;2022-12-18T20:25:27;126.55;;;36.13;;
28605;SDS011;46498;49.968;7.754;2022-12-18T20:30:28;110.70;;;32.40;;
28605;SDS011;46498;49.968;7.754;2022-12-18T20:35:30;109.22;;;32.33;;
28605;SDS011;46498;49.968;7.754;2022-12-18T20:40:33;111.88;;;35.15;;
28605;SDS011;46498;49.968;7.754;2022-12-18T20:45:33;106.82;;;33.38;;
28605;SDS011;46498;49.968;7.754;2022-12-18T20:50:36;121.73;;;35.17;;
28605;SDS011;46498;49.968;7.754;2022-12-18T20:55:40;110.63;;;33.58;;
28605;SDS011;46498;49.968;7.754;2022-12-18T21:00:42;106.35;;;32.72;;
28605;SDS011;46498;49.968;7.754;2022-12-18T21:05:42;132.52;;;38.05;;
28605;SDS011;46498;49.968;7.754;2022-12-18T21:10:43;328.45;;;87.65;;
28605;SDS011;46498;49.968;7.754;2022-12-18T21:15:44;210.90;;;64.18;;
28605;SDS011;46498;49.968;7.754;2022-12-18T21:20:45;113.82;;;35.42;;
28605;SDS011;46498;49.968;7.754;2022-12-18T21:25:46;112.35;;;34.60;;
28605;SDS011;46498;49.968;7.754;2022-12-18T21:30:51;114.88;;;34.25;;
28605;SDS011;46498;49.968;7.754;2022-12-18T21:35:51;104.35;;;32.10;;
28605;SDS011;46498;49.968;7.754;2022-12-18T21:40:52;113.55;;;33.03;;
28605;SDS011;46498;49.968;7.754;2022-12-18T21:45:53;114.53;;;34.47;;
28605;SDS011;46498;49.968;7.754;2022-12-18T21:50:55;112.10;;;31.90;;
28605;SDS011;46498;49.968;7.754;2022-12-18T21:55:57;107.53;;;33.42;;
28605;SDS011;46498;49.968;7.754;2022-12-18T22:00:58;106.93;;;31.52;;
28605;SDS011;46498;49.968;7.754;2022-12-18T22:05:59;116.85;;;34.33;;
28605;SDS011;46498;49.968;7.754;2022-12-18T22:11:10;117.55;;;34.35;;
28605;SDS011;46498;49.968;7.754;2022-12-18T22:16:12;122.18;;;35.08;;
28605;SDS011;46498;49.968;7.754;2022-12-18T22:21:20;115.93;;;34.00;;
28605;SDS011;46498;49.968;7.754;2022-12-18T22:26:31;113.18;;;33.17;;
28605;SDS011;46498;49.968;7.754;2022-12-18T22:31:40;109.80;;;31.60;;
28605;SDS011;46498;49.968;7.754;2022-12-18T22:36:43;125.40;;;35.42;;
28605;SDS011;46498;49.968;7.754;2022-12-18T22:41:46;121.93;;;34.85;;
28605;SDS011;46498;49.968;7.754;2022-12-18T22:46:48;110.37;;;33.83;;
28605;SDS011;46498;49.968;7.754;2022-12-18T22:52:06;120.78;;;35.03;;
28605;SDS011;46498;49.968;7.754;2022-12-18T22:57:08;122.13;;;35.05;;
28605;SDS011;46498;49.968;7.754;2022-12-18T23:02:09;112.82;;;33.38;;
28605;SDS011;46498;49.968;7.754;2022-12-18T23:07:10;107.53;;;32.92;;
28605;SDS011;46498;49.968;7.754;2022-12-18T23:12:13;112.75;;;34.17;;
28605;SDS011;46498;49.968;7.754;2022-12-18T23:17:16;114.28;;;33.55;;
28605;SDS011;46498;49.968;7.754;2022-12-18T23:22:17;117.53;;;34.85;;
28605;SDS011;46498;49.968;7.754;2022-12-18T23:27:18;114.95;;;33.50;;
28605;SDS011;46498;49.968;7.754;2022-12-18T23:32:19;110.35;;;31.98;;
28605;SDS011;46498;49.968;7.754;2022-12-18T23:37:20;117.82;;;33.75;;
28605;SDS011;46498;49.968;7.754;2022-12-18T23:42:57;118.70;;;33.45;;
28605;SDS011;46498;49.968;7.754;2022-12-18T23:47:59;114.95;;;34.67;;
28605;SDS011;46498;49.968;7.754;2022-12-18T23:53:00;118.53;;;37.77;;
28605;SDS011;46498;49.968;7.754;2022-12-18T23:58:07;110.45;;;34.10;;
